KRDK

Red Oak Municipal Airport

Red Oak, Iowa, USA
METAR KRDK 230455Z AUTO 00000KT 6SM HZ CLR 04/02 A3025 RMK AO2
Observed Flight Rules
Oct-23 @ 04:55 UTC (22 minutes ago) Visual Flight Rules
Visibility Clouds Conditions
6 miles
  • Clear skies
  • Haze
Temperatures Readings
Current 4°C / 39°F
Dewpoint 2°C / 36°F
Humidity 87%
Altimeter 30.25" Hg
Pressure 1024 hPa
Elevation 318
METAR KRDK 230455Z AUTO 00000KT 6SM HZ CLR 04/02 A3025 RMK AO2
Observed Flight Rules
Oct-23 @ 04:55 UTC
(22 minutes ago)
VFR
Clouds
  • Clear skies
Conditions
  • Haze
Temperature Dewpoint
4°C / 39°F 2°C / 36°F
Humidity Altimeter Pressure
87% 30.25" Hg 1024 hPa